Time;durP1;ratioP1;P1;durP2;ratioP2;P2;SDS_P1;SDS_P2;PMS_P1;PMS_P2;Temp;Humidity;BMP_temperature;BMP_pressure;BME280_temperature;BME280_humidity;BME280_pressure;Samples;Min_cycle;Max_cycle;Signal;HPM_P1;HPM_P2
2023/07/23 00:00:35;;;;;;;;;2.75;1.25;;;;;23.19;41.32;100761.72;4996591;28;45441;-68
2023/07/23 00:03:01;;;;;;;;;1.25;1.25;;;;;23.09;40.96;100740.75;4998528;28;45454;-68
2023/07/23 00:05:26;;;;;;;;;1.00;1.00;;;;;23.00;41.00;100727.00;4981205;28;47196;-68
2023/07/23 00:07:58;;;;;;;;;0.25;0.25;;;;;23.09;41.09;100740.75;4999116;28;45431;-68
2023/07/23 00:10:24;;;;;;;;;3.00;2.00;;;;;23.07;41.45;100742.72;4998864;28;45425;-68
2023/07/23 00:12:50;;;;;;;;;1.75;1.75;;;;;23.09;41.17;100739.88;4997726;28;45523;-68
2023/07/23 00:15:16;;;;;;;;;1.25;1.25;;;;;23.11;41.49;100740.59;4998787;28;46222;-68
2023/07/23 00:17:41;;;;;;;;;2.00;1.00;;;;;22.97;41.58;100714.53;4980896;28;45406;-68
2023/07/23 00:20:11;;;;;;;;;1.00;1.00;;;;;23.02;41.79;100733.19;4981169;28;45506;-68
2023/07/23 00:22:38;;;;;;;;;1.00;1.00;;;;;22.87;41.67;100703.56;4999024;28;45586;-68
2023/07/23 00:25:04;;;;;;;;;1.50;1.50;;;;;22.96;41.84;100717.38;4998692;28;46947;-68
2023/07/23 00:27:29;;;;;;;;;2.00;1.50;;;;;22.86;41.98;100701.81;4977113;28;45523;-68
2023/07/23 00:29:56;;;;;;;;;1.75;1.75;;;;;22.93;42.02;100730.25;4986225;28;45404;-68
2023/07/23 00:32:21;;;;;;;;;1.75;1.75;;;;;22.92;42.13;100722.19;4998077;28;45261;-68
2023/07/23 00:34:47;;;;;;;;;2.00;2.00;;;;;22.94;42.13;100728.41;4998422;28;46672;-68
2023/07/23 00:37:12;;;;;;;;;2.25;2.25;;;;;22.93;42.14;100730.25;4989466;28;45326;-68
2023/07/23 00:39:38;;;;;;;;;2.00;2.00;;;;;22.92;42.84;100727.66;4998536;28;45435;-68
2023/07/23 00:42:03;;;;;;;;;1.50;1.50;;;;;22.89;42.24;100728.78;4997276;28;45352;-68
2023/07/23 00:44:29;;;;;;;;;2.25;2.25;;;;;22.81;42.31;100716.84;4997113;28;47295;-68
2023/07/23 00:46:58;;;;;;;;;2.00;2.00;;;;;22.81;43.35;100720.41;4998335;28;45448;-68
2023/07/23 00:49:23;;;;;;;;;2.00;2.00;;;;;22.82;42.89;100718.53;4998651;28;45344;-68
2023/07/23 00:51:49;;;;;;;;;2.00;2.00;;;;;22.75;43.04;100704.59;4980840;28;45321;-68
2023/07/23 00:54:15;;;;;;;;;3.00;3.00;;;;;22.71;43.24;100711.28;4977484;28;47050;-68
2023/07/23 00:56:44;;;;;;;;;2.00;2.00;;;;;22.75;43.64;100708.19;4970717;28;45402;-68
2023/07/23 00:59:09;;;;;;;;;3.00;2.75;;;;;22.65;43.34;100701.78;4980857;28;45514;-68
2023/07/23 01:01:34;;;;;;;;;4.00;3.00;;;;;22.68;43.93;100706.09;4997821;28;45369;-68
2023/07/23 01:04:00;;;;;;;;;3.25;3.25;;;;;22.53;43.81;100689.22;4980335;28;46255;-68
2023/07/23 01:06:27;;;;;;;;;2.00;2.00;;;;;22.54;43.95;100688.22;5000427;28;45324;-68
2023/07/23 01:08:56;;;;;;;;;1.50;1.50;;;;;22.46;44.13;100682.56;4984052;28;45567;-68
2023/07/23 01:11:24;;;;;;;;;2.75;1.25;;;;;22.59;44.13;100699.59;5001073;28;45614;-68
2023/07/23 01:13:51;;;;;;;;;2.00;2.00;;;;;22.47;43.99;100673.41;5001557;28;45495;-68
2023/07/23 01:16:17;;;;;;;;;1.75;1.75;;;;;22.48;44.17;100676.00;5001418;28;45411;-68
2023/07/23 01:18:43;;;;;;;;;3.00;3.00;;;;;22.54;44.45;100691.81;5001587;28;45409;-68
2023/07/23 01:21:10;;;;;;;;;2.00;2.00;;;;;22.51;44.64;100683.91;4964411;28;45536;-68
2023/07/23 01:23:36;;;;;;;;;2.00;1.00;;;;;22.51;44.57;100683.91;4980445;28;47078;-68
2023/07/23 01:26:03;;;;;;;;;1.50;1.50;;;;;22.36;45.11;100661.56;4993705;28;45896;-68
2023/07/23 01:28:28;;;;;;;;;2.00;2.00;;;;;22.35;44.92;100662.56;4995771;28;45894;-68
2023/07/23 01:30:54;;;;;;;;;1.00;1.00;;;;;22.44;45.00;100673.69;5001359;28;45382;-68
2023/07/23 01:33:20;;;;;;;;;3.75;2.00;;;;;22.39;45.55;100665.91;5000568;28;46483;-68
2023/07/23 01:35:46;;;;;;;;;2.00;2.00;;;;;22.34;44.96;100659.97;4987769;28;45382;-68
2023/07/23 01:38:13;;;;;;;;;1.75;1.75;;;;;22.37;45.86;100667.88;4984695;28;45495;-68
2023/07/23 01:40:40;;;;;;;;;2.75;1.75;;;;;22.30;45.83;100647.63;5001303;28;45552;-68
2023/07/23 01:43:06;;;;;;;;;2.25;2.25;;;;;22.29;45.67;100654.06;5001071;28;46845;-68
2023/07/23 01:45:32;;;;;;;;;3.25;3.25;;;;;22.24;46.19;100650.84;4980261;28;45549;-68
2023/07/23 01:47:57;;;;;;;;;2.00;2.00;;;;;22.23;45.97;100644.50;4979319;28;45450;-68
2023/07/23 01:50:23;;;;;;;;;4.50;3.00;;;;;22.25;45.82;100638.94;4993892;28;45424;-68
2023/07/23 01:52:48;;;;;;;;;1.50;1.50;;;;;22.17;45.92;100626.88;4983114;28;48515;-68
2023/07/23 01:55:13;;;;;;;;;2.25;2.00;;;;;22.22;46.24;100642.81;5001126;28;45747;-68
2023/07/23 01:57:39;;;;;;;;;1.00;1.00;;;;;22.19;46.52;100633.03;4998931;28;45507;-68
2023/07/23 02:00:05;;;;;;;;;1.25;1.25;;;;;22.22;46.39;100642.81;5001092;28;45384;-68
2023/07/23 02:02:30;;;;;;;;;4.50;3.00;;;;;22.25;46.33;100636.22;4983289;28;47431;-68
2023/07/23 02:04:56;;;;;;;;;2.00;2.00;;;;;22.08;46.70;100611.31;5000786;28;45429;-68
2023/07/23 02:07:21;;;;;;;;;2.75;2.75;;;;;22.21;47.12;100639.19;4999542;28;45370;-68
2023/07/23 02:09:50;;;;;;;;;1.50;1.50;;;;;22.18;46.93;100630.44;5000815;28;45280;-68
2023/07/23 02:12:16;;;;;;;;;5.50;2.00;;;;;22.12;46.92;100639.97;4984351;28;47116;-68
2023/07/23 02:14:41;;;;;;;;;1.25;1.25;;;;;22.13;47.40;100627.25;5000066;28;45558;-68
2023/07/23 02:17:06;;;;;;;;;2.00;2.00;;;;;22.13;47.49;100633.53;4982311;28;45446;-68
2023/07/23 02:19:32;;;;;;;;;2.00;2.00;;;;;22.03;47.84;100635.28;4983080;28;45453;-68
2023/07/23 02:21:57;;;;;;;;;2.75;2.00;;;;;22.10;47.68;100641.97;5000382;28;45499;-68
2023/07/23 02:24:23;;;;;;;;;2.00;2.00;;;;;22.01;48.39;100629.97;4982882;28;45424;-68
2023/07/23 02:26:48;;;;;;;;;1.00;1.00;;;;;22.02;48.67;100630.88;4999928;28;45566;-68
2023/07/23 02:29:13;;;;;;;;;1.00;1.00;;;;;22.00;47.94;100633.72;4979469;28;45453;-68
2023/07/23 02:31:38;;;;;;;;;3.00;2.00;;;;;21.97;48.69;100628.50;4999147;28;47257;-68
2023/07/23 02:34:04;;;;;;;;;2.50;2.50;;;;;21.88;48.17;100610.25;5000197;28;45680;-68
2023/07/23 02:36:30;;;;;;;;;3.00;2.00;;;;;21.95;48.55;100616.03;5000296;28;45513;-68
2023/07/23 02:38:55;;;;;;;;;3.00;3.00;;;;;21.98;48.56;100627.50;5000384;28;45550;-68
2023/07/23 02:41:21;;;;;;;;;2.50;1.00;;;;;21.74;48.52;100581.50;4998500;28;48205;-68
2023/07/23 02:43:46;;;;;;;;;2.75;2.75;;;;;21.84;48.71;100606.91;5000348;28;45374;-68
2023/07/23 02:46:11;;;;;;;;;3.00;2.00;;;;;21.93;49.00;100616.16;4999585;28;45338;-68
2023/07/23 02:48:37;;;;;;;;;2.00;2.00;;;;;21.70;48.75;100577.31;4981332;28;53972;-68
2023/07/23 02:51:02;;;;;;;;;3.00;3.00;;;;;21.89;49.40;100622.00;4983355;28;55479;-68
2023/07/23 02:53:27;;;;;;;;;3.00;3.00;;;;;21.84;49.49;100606.06;5000209;28;45290;-68
2023/07/23 02:55:53;;;;;;;;;3.00;3.00;;;;;21.89;49.40;100628.28;4998731;28;45534;-68
2023/07/23 02:58:18;;;;;;;;;1.75;1.75;;;;;21.95;49.15;100629.63;4999587;28;45249;-68
2023/07/23 03:00:44;;;;;;;;;2.00;2.00;;;;;21.90;49.53;100613.72;4999837;28;45514;-68
2023/07/23 03:03:09;;;;;;;;;2.00;2.00;;;;;21.95;49.55;100626.91;4999226;28;45695;-68
2023/07/23 03:05:36;;;;;;;;;1.75;1.75;;;;;21.83;49.67;100599.78;4982217;28;45278;-68
2023/07/23 03:08:02;;;;;;;;;1.00;1.00;;;;;21.96;49.34;100612.34;4998699;28;45580;-68
2023/07/23 03:10:28;;;;;;;;;2.25;2.00;;;;;21.88;49.68;100607.53;4982368;28;47518;-68
2023/07/23 03:12:54;;;;;;;;;3.75;2.50;;;;;21.90;50.42;100615.53;4998504;28;45747;-68
2023/07/23 03:15:19;;;;;;;;;2.25;2.00;;;;;21.86;50.86;100616.81;4981876;28;45451;-68
2023/07/23 03:17:44;;;;;;;;;1.25;1.25;;;;;21.58;50.65;100587.31;4999410;28;45321;-68
2023/07/23 03:20:14;;;;;;;;;3.50;2.00;;;;;21.77;50.66;100611.13;4999059;28;47779;-68
2023/07/23 03:22:40;;;;;;;;;3.75;3.75;;;;;21.77;51.89;100610.28;4999730;28;45492;-68
2023/07/23 03:25:05;;;;;;;;;1.00;1.00;;;;;21.71;51.63;100603.47;4999806;28;45332;-68
2023/07/23 03:27:30;;;;;;;;;3.75;3.75;;;;;21.78;51.89;100607.41;4998730;28;45606;-68
2023/07/23 03:29:56;;;;;;;;;2.00;2.00;;;;;21.64;52.37;100603.09;4981060;28;47251;-68
2023/07/23 03:32:21;;;;;;;;;2.75;2.00;;;;;21.72;52.34;100607.03;4998909;28;45586;-68
2023/07/23 03:34:46;;;;;;;;;2.25;2.25;;;;;21.58;52.44;100595.44;4999410;28;45913;-68
2023/07/23 03:37:12;;;;;;;;;4.00;3.00;;;;;21.69;51.85;100621.75;4990399;28;45617;-68
2023/07/23 03:39:37;;;;;;;;;1.50;1.50;;;;;21.63;52.59;100616.81;4999219;28;46538;-68
2023/07/23 03:42:03;;;;;;;;;3.00;3.00;;;;;21.46;52.68;100591.84;4981745;28;45369;-68
2023/07/23 03:44:28;;;;;;;;;2.00;2.00;;;;;21.64;52.65;100618.56;4998677;28;45468;-68
2023/07/23 03:47:08;;;;;;;;;3.00;3.00;;;;;21.61;53.01;100607.94;4999025;28;45703;-68
2023/07/23 03:49:34;;;;;;;;;3.25;2.75;;;;;21.50;53.63;100603.38;4999110;28;45602;-68
2023/07/23 03:51:59;;;;;;;;;1.00;1.00;;;;;21.48;53.03;100604.47;4981528;28;46307;-68
2023/07/23 03:54:25;;;;;;;;;2.25;1.50;;;;;21.44;53.40;100601.97;4999253;28;45579;-67
2023/07/23 03:56:50;;;;;;;;;4.00;4.00;;;;;21.45;53.32;100601.00;4998437;28;45329;-67
2023/07/23 03:59:16;;;;;;;;;3.75;3.00;;;;;21.42;53.11;100595.81;4998933;28;45928;-68
2023/07/23 04:01:41;;;;;;;;;3.75;3.75;;;;;21.31;53.62;100579.50;4998541;28;45357;-68
2023/07/23 04:04:06;;;;;;;;;2.00;2.00;;;;;21.43;53.54;100600.25;4999104;28;45513;-68
2023/07/23 04:06:32;;;;;;;;;3.50;3.50;;;;;21.37;53.50;100584.47;4999198;28;45603;-68
2023/07/23 04:08:57;;;;;;;;;4.00;3.00;;;;;21.41;53.50;100587.78;4998935;28;46517;-68
2023/07/23 04:11:22;;;;;;;;;2.00;2.00;;;;;21.44;53.60;100598.41;4998643;28;45833;-68
2023/07/23 04:13:49;;;;;;;;;1.75;1.75;;;;;21.44;53.62;100590.25;4997758;28;45501;-68
2023/07/23 04:16:15;;;;;;;;;3.00;2.00;;;;;21.41;53.71;100588.63;4995399;28;45409;-68
2023/07/23 04:18:53;;;;;;;;;4.50;3.25;;;;;21.33;54.18;100580.25;4998051;28;45464;-68
2023/07/23 04:21:21;;;;;;;;;2.00;2.00;;;;;21.42;54.00;100586.81;4981071;28;45283;-68
2023/07/23 04:23:48;;;;;;;;;1.00;1.00;;;;;21.33;53.97;100580.25;4981438;28;45445;-68
2023/07/23 04:26:15;;;;;;;;;3.75;3.75;;;;;21.34;54.33;100583.84;4998093;28;45544;-68
2023/07/23 04:28:40;;;;;;;;;2.75;2.75;;;;;21.23;54.38;100572.00;4998813;28;45684;-68
2023/07/23 04:31:05;;;;;;;;;4.50;4.00;;;;;21.30;54.87;100577.81;4998359;28;45548;-68
2023/07/23 04:33:31;;;;;;;;;3.25;3.25;;;;;21.28;54.72;100580.63;4977494;28;45403;-68
2023/07/23 04:35:56;;;;;;;;;2.75;2.50;;;;;21.28;55.16;100572.50;4977508;28;45696;-68
2023/07/23 04:38:21;;;;;;;;;4.25;3.00;;;;;21.19;54.73;100570.50;4978929;28;48083;-68
2023/07/23 04:40:48;;;;;;;;;3.00;3.00;;;;;21.29;55.15;100590.50;4981607;28;45435;-68
2023/07/23 04:43:13;;;;;;;;;1.50;1.50;;;;;21.29;54.97;100579.63;4982749;28;45349;-68
2023/07/23 04:45:38;;;;;;;;;3.50;3.50;;;;;21.11;55.24;100553.97;4977243;28;45300;-68
2023/07/23 04:48:04;;;;;;;;;2.50;2.50;;;;;21.24;55.38;100581.00;4980746;28;47265;-68
2023/07/23 04:50:29;;;;;;;;;4.25;4.25;;;;;21.23;55.57;100582.84;4982357;28;45419;-68
2023/07/23 04:52:54;;;;;;;;;2.75;2.75;;;;;21.14;55.11;100559.16;4982522;28;45389;-68
2023/07/23 04:55:20;;;;;;;;;3.00;3.00;;;;;21.20;55.54;100574.94;4980407;28;45490;-68
2023/07/23 04:57:45;;;;;;;;;3.00;3.00;;;;;21.12;55.44;100555.69;4981401;28;45297;-68
2023/07/23 05:00:11;;;;;;;;;1.00;1.00;;;;;21.21;55.53;100565.81;4981605;28;45406;-68
2023/07/23 05:02:36;;;;;;;;;2.00;2.00;;;;;21.18;55.40;100562.47;4996856;28;45655;-68
2023/07/23 05:05:02;;;;;;;;;2.75;2.75;;;;;21.26;55.72;100579.00;4980103;28;45646;-68
2023/07/23 05:07:27;;;;;;;;;2.75;2.00;;;;;21.20;55.44;100565.91;4982150;28;46034;-68
2023/07/23 05:09:52;;;;;;;;;2.75;2.75;;;;;21.20;55.79;100572.25;4982005;28;45384;-68
2023/07/23 05:12:18;;;;;;;;;4.50;2.00;;;;;21.13;56.23;100556.56;4980706;28;45415;-68
2023/07/23 05:14:47;;;;;;;;;3.00;2.00;;;;;21.17;56.29;100579.78;4979074;28;51725;-68
2023/07/23 05:17:13;;;;;;;;;3.25;2.50;;;;;21.18;55.91;100590.47;4981531;28;45490;-68
2023/07/23 05:19:39;;;;;;;;;2.00;2.00;;;;;21.14;56.31;100570.00;4981829;28;45688;-68
2023/07/23 05:22:05;;;;;;;;;2.25;2.25;;;;;21.07;56.62;100564.19;4996891;28;45484;-68
2023/07/23 05:24:30;;;;;;;;;2.50;2.50;;;;;21.18;56.10;100581.47;4981882;28;45569;-68
2023/07/23 05:26:56;;;;;;;;;4.00;3.00;;;;;21.04;56.78;100545.44;4981083;28;45327;-68
2023/07/23 05:29:21;;;;;;;;;3.75;2.25;;;;;21.17;56.60;100555.34;4981773;28;45306;-68
2023/07/23 05:31:46;;;;;;;;;3.25;2.00;;;;;21.13;56.72;100551.13;4982950;28;45537;-68
2023/07/23 05:34:12;;;;;;;;;2.00;2.00;;;;;21.00;56.83;100535.84;4983514;28;45442;-68
2023/07/23 05:36:37;;;;;;;;;4.50;3.00;;;;;21.08;56.79;100557.81;5000712;28;45504;-68
2023/07/23 05:39:03;;;;;;;;;2.00;2.00;;;;;21.12;57.13;100552.97;5001283;28;45443;-68
2023/07/23 05:41:28;;;;;;;;;2.50;2.00;;;;;20.91;57.84;100539.25;4983407;28;45479;-73
2023/07/23 05:43:53;;;;;;;;;2.00;2.00;;;;;20.96;57.68;100534.34;4998874;28;45422;-74
2023/07/23 05:46:19;;;;;;;;;4.00;2.00;;;;;21.03;57.94;100546.44;4998069;28;47092;-72
2023/07/23 05:48:44;;;;;;;;;4.00;4.00;;;;;21.05;58.08;100551.75;5000862;28;45449;-73
2023/07/23 05:51:40;;;;;;;;;;;;;;;;;;;;;
2023/07/23 06:28:25;;;;;;;;;;;;;;;;;;;;;
2023/07/23 06:31:44;;;;;;;;;;;;;;;;;;;;;
2023/07/23 06:34:10;;;;;;;;;3.75;3.75;;;;;21.03;59.52;100545.56;4916771;28;71130;-70
2023/07/23 07:45:43;;;;;;;;;;;;;;;;;;;;;
2023/07/23 07:48:59;;;;;;;;;;;;;;;;;;;;;
2023/07/23 08:02:41;;;;;;;;;5.25;4.00;;;;;21.77;59.56;100570.38;4916261;28;45811;-72
2023/07/23 08:09:17;;;;;;;;;2.00;2.00;;;;;21.84;59.25;100559.88;4891597;28;45863;-73
2023/07/23 08:12:47;;;;;;;;;;;;;;;;;;;;;
2023/07/23 08:15:48;;;;;;;;;;;;;;;;;;;;;
2023/07/23 08:18:14;;;;;;;;;3.75;3.75;;;;;22.00;59.73;100557.59;4917818;28;68885;-70
2023/07/23 08:20:40;;;;;;;;;3.00;3.00;;;;;22.17;59.11;100583.38;4917008;28;45604;-73
2023/07/23 08:23:06;;;;;;;;;2.00;2.00;;;;;21.95;58.97;100548.09;4910291;28;46341;-73
2023/07/23 08:25:32;;;;;;;;;3.50;2.50;;;;;21.98;59.01;100536.97;4915418;28;45818;-72
2023/07/23 08:28:50;;;;;;;;;;;;;;;;;;;;;
2023/07/23 08:32:26;;;;;;;;;;;;;;;;;;;;;
2023/07/23 08:38:24;;;;;;;;;2.50;2.25;;;;;22.32;58.67;100577.66;4987486;28;45468;-70
2023/07/23 08:41:29;;;;;;;;;;;;;;;;;;;;;
2023/07/23 08:44:09;;;;;;;;;3.25;3.25;;;;;22.35;59.23;100574.69;5008355;28;71473;-73
2023/07/23 08:46:56;;;;;;;;;;;;;;;;;;;;;
2023/07/23 08:49:23;;;;;;;;;2.75;2.75;;;;;22.34;59.02;100570.25;5007564;28;72434;-71
2023/07/23 08:51:49;;;;;;;;;3.00;3.00;;;;;22.21;59.30;100546.75;5010549;28;45400;-70
2023/07/23 08:54:16;;;;;;;;;3.00;3.00;;;;;22.26;58.94;100546.38;4987211;28;45589;-69
2023/07/23 08:56:43;;;;;;;;;2.00;2.00;;;;;22.33;58.72;100557.63;5004862;28;45503;-69
2023/07/23 08:59:09;;;;;;;;;4.50;2.75;;;;;22.48;59.11;100580.78;5005289;28;45524;-69
2023/07/23 09:01:37;;;;;;;;;2.00;2.00;;;;;22.48;59.08;100575.34;5008417;28;45544;-69
2023/07/23 09:04:05;;;;;;;;;2.50;2.50;;;;;22.51;58.83;100588.69;5004531;28;45448;-69
2023/07/23 09:06:31;;;;;;;;;2.75;2.50;;;;;22.52;58.98;100575.94;4986495;28;48549;-69
2023/07/23 09:09:05;;;;;;;;;2.75;2.75;;;;;22.51;59.49;100577.81;4992644;28;45402;-69
2023/07/23 09:11:31;;;;;;;;;3.00;3.00;;;;;22.49;58.43;100577.09;5006446;28;45537;-69
2023/07/23 09:14:01;;;;;;;;;1.00;1.00;;;;;22.55;58.57;100590.19;5004426;28;45641;-69
2023/07/23 09:16:27;;;;;;;;;4.00;4.00;;;;;22.62;58.78;100586.91;4986256;28;47063;-69
2023/07/23 09:18:52;;;;;;;;;4.00;2.75;;;;;22.47;58.97;100562.78;5004770;28;45584;-69
2023/07/23 09:21:25;;;;;;;;;3.25;3.25;;;;;22.58;58.58;100562.69;5004949;28;45368;-69
2023/07/23 09:23:52;;;;;;;;;3.25;3.25;;;;;22.73;58.86;100586.88;5004852;28;45530;-69
2023/07/23 09:26:20;;;;;;;;;3.50;3.50;;;;;22.56;58.38;100559.25;4984483;28;47493;-69
2023/07/23 09:28:46;;;;;;;;;2.75;2.25;;;;;22.62;59.27;100563.31;5009124;28;45521;-69
2023/07/23 09:31:11;;;;;;;;;3.25;3.25;;;;;22.70;60.67;100574.41;4992347;28;45590;-69
2023/07/23 09:33:36;;;;;;;;;3.25;3.00;;;;;22.68;60.35;100579.09;5000031;28;45416;-69
2023/07/23 09:36:04;;;;;;;;;3.00;2.50;;;;;22.69;60.57;100597.16;4997626;28;46724;-69
2023/07/23 09:38:31;;;;;;;;;3.75;2.75;;;;;22.55;60.32;100568.41;5015647;28;45432;-69
2023/07/23 09:40:57;;;;;;;;;3.00;3.00;;;;;22.60;60.36;100578.03;5019940;28;45770;-69
2023/07/23 09:43:23;;;;;;;;;2.00;2.00;;;;;22.67;61.08;100591.00;4983492;28;45639;-69
2023/07/23 09:45:49;;;;;;;;;3.00;3.00;;;;;22.66;60.09;100591.13;5000944;28;46376;-69
2023/07/23 09:48:18;;;;;;;;;3.00;3.00;;;;;22.52;60.19;100567.78;5001244;28;45495;-69
2023/07/23 09:50:49;;;;;;;;;3.00;3.00;;;;;22.70;59.87;100593.44;5001346;28;45309;-69
2023/07/23 09:53:16;;;;;;;;;3.25;2.75;;;;;22.63;60.04;100583.22;4983500;28;45559;-69
2023/07/23 09:55:42;;;;;;;;;2.75;2.75;;;;;22.67;60.25;100588.25;5001021;28;45328;-69
2023/07/23 09:58:10;;;;;;;;;1.75;1.75;;;;;22.81;60.99;100616.16;5001151;28;45592;-69
2023/07/23 10:00:36;;;;;;;;;3.50;3.00;;;;;22.65;61.58;100586.66;5001166;28;45503;-69
2023/07/23 10:03:02;;;;;;;;;3.00;2.00;;;;;22.67;61.33;100604.59;5006548;28;45776;-69
2023/07/23 10:05:29;;;;;;;;;1.50;1.50;;;;;22.68;61.77;100619.03;4987352;28;47498;-69
2023/07/23 10:07:54;;;;;;;;;0.25;0.25;;;;;22.68;60.96;100619.03;4991996;28;45460;-69
2023/07/23 10:10:20;;;;;;;;;2.25;2.00;;;;;22.64;61.67;100617.59;5015830;28;45334;-69
2023/07/23 10:12:46;;;;;;;;;4.00;3.00;;;;;22.62;61.72;100622.28;5001026;28;45447;-69
2023/07/23 10:15:11;;;;;;;;;3.25;3.25;;;;;22.56;62.12;100624.53;5000615;28;46317;-69
2023/07/23 10:17:46;;;;;;;;;3.00;2.25;;;;;22.47;61.87;100610.84;5000498;28;45364;-69
2023/07/23 10:20:14;;;;;;;;;3.75;3.25;;;;;22.52;61.86;100616.75;5000789;28;45317;-69
2023/07/23 10:22:40;;;;;;;;;3.00;3.00;;;;;22.47;62.95;100613.56;5000872;28;45332;-69
2023/07/23 10:25:34;;;;;;;;;5.25;4.00;;;;;22.67;62.94;100639.97;4982687;28;46209;-69
2023/07/23 10:28:05;;;;;;;;;5.25;2.75;;;;;22.65;63.72;100630.19;5001885;28;45627;-69
2023/07/23 10:30:38;;;;;;;;;4.75;3.75;;;;;22.52;63.76;100620.34;4993513;28;45366;-69
2023/07/23 10:33:24;;;;;;;;;5.00;4.75;;;;;22.68;63.58;100640.81;5016040;28;45670;-69
2023/07/23 10:35:52;;;;;;;;;3.00;3.00;;;;;22.63;64.93;100641.19;4986403;28;45508;-69
2023/07/23 10:38:22;;;;;;;;;3.00;3.00;;;;;22.51;64.86;100632.22;5019497;28;45531;-68
2023/07/23 10:40:48;;;;;;;;;4.50;3.50;;;;;22.39;65.09;100608.78;5000533;28;45444;-69
2023/07/23 10:43:14;;;;;;;;;3.75;3.75;;;;;22.50;65.33;100641.41;5000299;28;45366;-69
2023/07/23 10:45:47;;;;;;;;;3.25;3.25;;;;;22.34;64.96;100614.59;5000061;28;46445;-69
2023/07/23 10:48:17;;;;;;;;;2.25;2.25;;;;;22.48;65.12;100642.50;5000449;28;45493;-69
2023/07/23 10:51:02;;;;;;;;;2.00;2.00;;;;;22.36;65.58;100617.19;5000353;28;45350;-69
2023/07/23 10:53:31;;;;;;;;;3.75;3.75;;;;;22.48;66.25;100645.22;5011868;28;45520;-69
2023/07/23 10:55:59;;;;;;;;;6.00;4.50;;;;;22.36;66.30;100625.34;5006764;28;45480;-69
2023/07/23 10:58:26;;;;;;;;;5.25;4.00;;;;;22.29;66.21;100607.84;4998996;28;45606;-69
2023/07/23 11:00:55;;;;;;;;;4.00;3.00;;;;;22.48;67.01;100648.78;4982342;28;45451;-69
2023/07/23 11:03:23;;;;;;;;;4.75;4.75;;;;;22.32;66.94;100632.03;5001010;28;45944;-69
2023/07/23 11:05:50;;;;;;;;;6.00;5.50;;;;;22.47;66.65;100644.38;4982326;28;47397;-69
2023/07/23 11:08:19;;;;;;;;;4.00;4.00;;;;;22.46;67.57;100642.63;4982305;28;45398;-68
2023/07/23 11:11:02;;;;;;;;;5.25;4.00;;;;;22.24;67.89;100604.63;5001786;28;45429;-68
2023/07/23 11:13:33;;;;;;;;;3.00;3.00;;;;;22.46;68.14;100647.22;5011804;28;45524;-68
2023/07/23 11:15:59;;;;;;;;;4.00;4.00;;;;;22.31;68.68;100617.59;4999714;28;45492;-68
2023/07/23 11:18:25;;;;;;;;;5.00;5.00;;;;;22.24;69.38;100612.78;4999541;28;45419;-68
2023/07/23 11:20:52;;;;;;;;;5.00;3.75;;;;;22.28;69.06;100620.56;5000080;28;45374;-68
2023/07/23 11:23:20;;;;;;;;;5.75;4.75;;;;;22.40;69.33;100626.81;4981961;28;45620;-69
2023/07/23 11:25:47;;;;;;;;;3.50;3.50;;;;;22.29;68.99;100619.56;4999842;28;45487;-68
2023/07/23 11:28:13;;;;;;;;;4.75;4.75;;;;;22.36;69.67;100631.66;5002448;28;45531;-68
2023/07/23 11:30:39;;;;;;;;;2.00;2.00;;;;;22.39;69.32;100645.00;5019630;28;45432;-68
2023/07/23 11:33:05;;;;;;;;;3.00;3.00;;;;;22.20;69.57;100625.72;5016188;28;45555;-68
2023/07/23 11:35:31;;;;;;;;;4.25;4.25;;;;;22.18;69.58;100614.97;4999436;28;45457;-68
2023/07/23 11:38:03;;;;;;;;;3.00;3.00;;;;;22.39;69.99;100636.84;5012617;28;45404;-68
2023/07/23 11:40:28;;;;;;;;;2.75;2.75;;;;;22.33;69.71;100628.34;5007117;28;45527;-68
2023/07/23 11:42:54;;;;;;;;;3.00;3.00;;;;;22.37;70.29;100637.97;5012806;28;45791;-68
2023/07/23 11:45:20;;;;;;;;;3.00;2.75;;;;;22.27;70.19;100620.66;4999184;28;46252;-68
2023/07/23 11:47:51;;;;;;;;;3.00;2.00;;;;;22.37;70.91;100635.25;4999114;28;45277;-68
2023/07/23 11:50:17;;;;;;;;;4.25;3.00;;;;;22.36;70.87;100630.81;4998931;28;45413;-68
2023/07/23 11:52:43;;;;;;;;;3.00;3.00;;;;;22.16;70.13;100588.94;4999189;28;45411;-68
2023/07/23 11:55:38;;;;;;;;;4.50;3.00;;;;;22.36;70.15;100626.22;4999317;28;46613;-68
2023/07/23 11:58:03;;;;;;;;;2.25;2.25;;;;;22.18;69.76;100582.34;4988489;28;45922;-68
2023/07/23 12:00:37;;;;;;;;;2.00;2.00;;;;;22.35;70.02;100599.16;4985514;28;45331;-68
2023/07/23 12:03:07;;;;;;;;;3.00;3.00;;;;;22.32;70.16;100585.81;5005242;28;45348;-68
2023/07/23 12:05:32;;;;;;;;;5.75;4.50;;;;;22.30;70.40;100585.09;4999079;28;45416;-68
2023/07/23 12:07:58;;;;;;;;;6.00;4.00;;;;;22.51;70.20;100617.75;4999188;28;45327;-68
2023/07/23 12:10:26;;;;;;;;;3.50;3.50;;;;;22.52;69.98;100617.63;5000784;28;45270;-68
2023/07/23 12:12:52;;;;;;;;;5.00;5.00;;;;;22.53;69.86;100622.06;4981518;28;45495;-69
2023/07/23 12:15:18;;;;;;;;;6.50;6.00;;;;;22.56;69.75;100616.38;5012213;28;45474;-69
2023/07/23 12:17:44;;;;;;;;;4.25;4.25;;;;;22.56;70.47;100612.78;4980885;28;45468;-68
2023/07/23 12:20:16;;;;;;;;;3.75;3.75;;;;;22.58;70.09;100618.97;4999119;28;45408;-69
2023/07/23 12:22:55;;;;;;;;;4.00;4.00;;;;;22.48;70.67;100591.69;4981384;28;45932;-69
2023/07/23 12:25:22;;;;;;;;;5.00;5.00;;;;;22.50;70.69;100587.00;5006877;28;45349;-68
2023/07/23 12:27:48;;;;;;;;;6.00;6.00;;;;;22.60;70.74;100602.50;5003998;28;45593;-69
2023/07/23 12:30:13;;;;;;;;;4.25;4.00;;;;;22.65;71.00;100608.41;5018554;28;45413;-68
2023/07/23 12:32:38;;;;;;;;;6.00;5.00;;;;;22.54;71.00;100588.44;5018326;28;45492;-69
2023/07/23 12:35:04;;;;;;;;;4.00;4.00;;;;;22.65;70.19;100605.69;4981115;28;47546;-69
2023/07/23 12:37:31;;;;;;;;;4.00;4.00;;;;;22.69;70.92;100608.03;5011694;28;45278;-68
2023/07/23 12:39:57;;;;;;;;;5.75;4.50;;;;;22.58;70.92;100583.59;5012836;28;45399;-69
2023/07/23 12:42:23;;;;;;;;;3.50;3.50;;;;;22.57;71.18;100569.16;5005231;28;45541;-69
2023/07/23 12:44:49;;;;;;;;;7.00;5.25;;;;;22.70;71.20;100595.28;4998484;28;45617;-69
2023/07/23 12:47:14;;;;;;;;;5.00;4.00;;;;;22.62;71.14;100576.91;4998405;28;45326;-68
2023/07/23 12:49:40;;;;;;;;;3.75;3.75;;;;;22.67;71.57;100576.50;5011875;28;45344;-69
2023/07/23 12:52:07;;;;;;;;;5.75;4.25;;;;;22.82;71.14;100601.53;4993902;28;45345;-68
2023/07/23 12:54:33;;;;;;;;;5.00;4.00;;;;;22.80;70.91;100593.50;4998647;28;46405;-69
2023/07/23 12:56:59;;;;;;;;;5.00;5.00;;;;;22.83;71.06;100587.78;4998513;28;45334;-69
2023/07/23 12:59:24;;;;;;;;;4.75;4.75;;;;;22.68;71.40;100556.47;4998677;28;45839;-69
2023/07/23 13:01:50;;;;;;;;;7.75;6.00;;;;;22.87;71.30;100589.25;5005191;28;45279;-69
2023/07/23 13:04:15;;;;;;;;;4.00;4.00;;;;;22.72;70.88;100552.47;5009365;28;46328;-69
2023/07/23 13:06:41;;;;;;;;;4.75;3.25;;;;;22.83;71.13;100560.56;5008550;28;45384;-69
2023/07/23 13:09:06;;;;;;;;;5.00;4.50;;;;;22.87;70.90;100558.44;5014620;28;45828;-69
2023/07/23 13:11:32;;;;;;;;;3.75;2.75;;;;;22.99;71.07;100567.41;4986081;28;46373;-69
2023/07/23 13:13:57;;;;;;;;;5.75;5.75;;;;;22.90;71.09;100542.75;5014161;28;46485;-69
2023/07/23 13:16:22;;;;;;;;;4.00;4.00;;;;;23.13;70.19;100573.38;5001470;28;45376;-69
2023/07/23 13:18:48;;;;;;;;;4.00;4.00;;;;;23.08;70.04;100539.41;5001850;28;45346;-68
2023/07/23 13:21:13;;;;;;;;;5.00;3.50;;;;;23.29;70.01;100577.50;5001700;28;45380;-69
2023/07/23 13:23:39;;;;;;;;;3.00;3.00;;;;;23.11;69.31;100520.09;5001532;28;45496;-69
2023/07/23 13:26:04;;;;;;;;;5.75;4.75;;;;;23.33;68.81;100557.16;4983814;28;45998;-69
2023/07/23 13:28:29;;;;;;;;;3.75;3.75;;;;;23.30;68.37;100541.97;5007096;28;45434;-69
2023/07/23 13:30:55;;;;;;;;;4.00;4.00;;;;;23.44;67.72;100564.38;5021198;28;45420;-69
2023/07/23 13:33:21;;;;;;;;;3.25;3.25;;;;;23.31;67.39;100535.50;5015607;28;45481;-69
2023/07/23 13:35:47;;;;;;;;;3.00;3.00;;;;;23.33;67.23;100534.50;4992286;28;45693;-68
2023/07/23 13:38:13;;;;;;;;;8.00;4.75;;;;;23.33;66.98;100521.75;5014620;28;45391;-69
2023/07/23 13:40:39;;;;;;;;;4.25;4.00;;;;;23.54;66.37;100553.50;5013859;28;45369;-69
2023/07/23 13:43:05;;;;;;;;;5.00;5.00;;;;;23.58;66.62;100553.09;5001864;28;45451;-69
2023/07/23 13:45:30;;;;;;;;;4.00;4.00;;;;;23.62;65.79;100540.03;5000921;28;45396;-69